createdAt,value
2017-12-01T00:00:22.589Z,1006.04
2017-12-01T00:01:22.551Z,1006.04
2017-12-01T00:02:22.519Z,1006.08
2017-12-01T00:03:22.492Z,1006.06
2017-12-01T00:04:22.453Z,1006.09
2017-12-01T00:05:22.425Z,1006.08
2017-12-01T00:06:22.391Z,1006.04
2017-12-01T00:07:22.358Z,1006.08
2017-12-01T00:08:22.332Z,1006.06
2017-12-01T00:09:22.288Z,1006.13
2017-12-01T00:10:22.261Z,1006.09
2017-12-01T00:11:22.231Z,1006.08
2017-12-01T00:12:22.204Z,1006.05
2017-12-01T00:13:22.165Z,1006.08
2017-12-01T00:14:22.429Z,1006.09
2017-12-01T00:15:22.108Z,1006.15
2017-12-01T00:16:22.070Z,1006.13
2017-12-01T00:17:22.048Z,1006.17
2017-12-01T00:18:22.008Z,1006.18
2017-12-01T00:19:21.972Z,1006.19
2017-12-01T00:20:22.194Z,1006.21
2017-12-01T00:21:21.913Z,1006.19
2017-12-01T00:22:21.882Z,1006.20
2017-12-01T00:23:21.861Z,1006.22
2017-12-01T00:24:21.817Z,1006.21
2017-12-01T00:25:21.790Z,1006.24
2017-12-01T00:26:22.066Z,1006.20
2017-12-01T00:27:21.722Z,1006.23
2017-12-01T00:28:21.686Z,1006.18
2017-12-01T00:29:21.670Z,1006.20
2017-12-01T00:30:21.626Z,1006.21
2017-12-01T00:31:21.595Z,1006.22
2017-12-01T00:32:21.570Z,1006.23
2017-12-01T00:33:21.528Z,1006.20
2017-12-01T00:34:21.496Z,1006.24
2017-12-01T00:35:21.472Z,1006.20
2017-12-01T00:36:21.447Z,1006.23
2017-12-01T00:37:21.408Z,1006.27
2017-12-01T00:38:21.379Z,1006.26
2017-12-01T00:39:21.341Z,1006.24
2017-12-01T00:40:21.318Z,1006.24
2017-12-01T00:41:21.276Z,1006.25
2017-12-01T00:42:21.251Z,1006.25
2017-12-01T00:43:21.215Z,1006.22
2017-12-01T00:44:21.174Z,1006.25
2017-12-01T00:45:21.147Z,1006.24
2017-12-01T00:46:21.113Z,1006.22
2017-12-01T00:47:21.079Z,1006.25
2017-12-01T00:48:21.057Z,1006.25
2017-12-01T00:49:21.026Z,1006.30
2017-12-01T00:50:21.289Z,1006.28
2017-12-01T00:51:20.968Z,1006.30
2017-12-01T00:52:20.931Z,1006.34
2017-12-01T00:53:20.890Z,1006.38
2017-12-01T00:54:20.959Z,1006.43
2017-12-01T00:55:20.825Z,1006.42
2017-12-01T00:56:21.149Z,1006.44
2017-12-01T00:57:20.760Z,1006.43
2017-12-01T00:58:20.732Z,1006.49
2017-12-01T00:59:20.701Z,1006.48
2017-12-01T01:00:20.662Z,1006.47
2017-12-01T01:01:20.632Z,1006.44
2017-12-01T01:02:20.844Z,1006.46
2017-12-01T01:03:20.568Z,1006.46
2017-12-01T01:04:20.543Z,1006.47
2017-12-01T01:05:20.515Z,1006.47
2017-12-01T01:06:20.467Z,1006.46
2017-12-01T01:07:20.439Z,1006.47
2017-12-01T01:08:20.413Z,1006.48
2017-12-01T01:09:20.389Z,1006.49
2017-12-01T01:10:20.345Z,1006.48
2017-12-01T01:11:20.310Z,1006.55
2017-12-01T01:12:20.279Z,1006.55
2017-12-01T01:13:20.248Z,1006.51
2017-12-01T01:14:20.219Z,1006.52
2017-12-01T01:15:20.186Z,1006.52
2017-12-01T01:16:20.142Z,1006.53
2017-12-01T01:17:20.119Z,1006.53
2017-12-01T01:18:20.092Z,1006.54
2017-12-01T01:19:20.051Z,1006.54
2017-12-01T01:20:20.018Z,1006.49
2017-12-01T01:21:19.988Z,1006.54
2017-12-01T01:22:19.978Z,1006.53
2017-12-01T01:23:19.917Z,1006.54
2017-12-01T01:24:19.899Z,1006.50
2017-12-01T01:25:19.866Z,1006.57
2017-12-01T01:26:19.826Z,1006.60
2017-12-01T01:27:19.793Z,1006.62
2017-12-01T01:28:19.764Z,1006.63
2017-12-01T01:29:19.731Z,1006.65
2017-12-01T01:30:19.701Z,1006.66
2017-12-01T01:31:19.672Z,1006.68
2017-12-01T01:32:20.431Z,1006.71
2017-12-01T01:33:19.608Z,1006.73
2017-12-01T01:34:19.580Z,1006.70
2017-12-01T01:35:19.539Z,1006.70
2017-12-01T01:36:19.502Z,1006.72
2017-12-01T01:37:19.480Z,1006.79
2017-12-01T01:38:19.685Z,1006.77
2017-12-01T01:39:19.409Z,1006.73
2017-12-01T01:40:19.376Z,1006.79
2017-12-01T01:41:19.343Z,1006.71
2017-12-01T01:42:19.322Z,1006.79
2017-12-01T01:43:19.295Z,1006.77
2017-12-01T01:44:19.497Z,1006.81
2017-12-01T01:45:19.209Z,1006.78
2017-12-01T01:46:19.197Z,1006.95
2017-12-01T01:47:19.155Z,1006.96
2017-12-01T01:48:19.113Z,1006.99
2017-12-01T01:49:19.094Z,1006.96
2017-12-01T01:50:19.069Z,1006.96
2017-12-01T01:51:19.024Z,1007.03
2017-12-01T01:52:18.998Z,1006.99
2017-12-01T01:53:18.958Z,1007.07
2017-12-01T01:54:18.920Z,1007.04
2017-12-01T01:55:18.898Z,1007.08
2017-12-01T01:56:18.868Z,1007.09
2017-12-01T01:57:18.831Z,1007.06
2017-12-01T01:58:18.804Z,1007.06
2017-12-01T01:59:18.769Z,1007.11
2017-12-01T02:00:18.735Z,1007.15
2017-12-01T02:01:18.700Z,1007.08
2017-12-01T02:02:19.020Z,1007.08
2017-12-01T02:03:18.646Z,1007.09
2017-12-01T02:04:18.602Z,1007.02
2017-12-01T02:05:18.579Z,1007.07
2017-12-01T02:06:18.545Z,1007.13
2017-12-01T02:07:18.503Z,1007.10
2017-12-01T02:08:18.741Z,1007.14
2017-12-01T02:09:18.454Z,1007.12
2017-12-01T02:10:18.418Z,1007.13
2017-12-01T02:11:18.418Z,1007.18
2017-12-01T02:12:18.355Z,1007.21
2017-12-01T02:13:18.318Z,1007.19
2017-12-01T02:14:18.294Z,1007.19
2017-12-01T02:15:18.253Z,1007.26
2017-12-01T02:16:18.230Z,1007.25
2017-12-01T02:17:18.188Z,1007.27
2017-12-01T02:18:18.168Z,1007.33
2017-12-01T02:19:18.126Z,1007.34
2017-12-01T02:20:18.339Z,1007.36
2017-12-01T02:21:18.068Z,1007.31
2017-12-01T02:22:18.035Z,1007.37
2017-12-01T02:23:17.992Z,1007.35
2017-12-01T02:24:17.971Z,1007.33
2017-12-01T02:25:17.938Z,1007.32
2017-12-01T02:26:18.149Z,1007.35
2017-12-01T02:27:17.869Z,1007.33
2017-12-01T02:28:17.838Z,1007.33
2017-12-01T02:29:17.817Z,1007.35
2017-12-01T02:30:17.790Z,1007.35
2017-12-01T02:31:17.747Z,1007.34
2017-12-01T02:32:17.720Z,1007.32
2017-12-01T02:33:17.677Z,1007.39
2017-12-01T02:34:17.647Z,1007.38
2017-12-01T02:35:17.629Z,1007.40
2017-12-01T02:36:17.583Z,1007.43
2017-12-01T02:37:17.554Z,1007.41
2017-12-01T02:38:17.536Z,1007.48
2017-12-01T02:39:17.495Z,1007.48
2017-12-01T02:40:17.486Z,1007.43
2017-12-01T02:41:17.431Z,1007.44
2017-12-01T02:42:17.397Z,1007.43
2017-12-01T02:43:17.365Z,1007.42
2017-12-01T02:44:17.580Z,1007.39
2017-12-01T02:45:17.309Z,1007.45
2017-12-01T02:46:17.266Z,1007.43
2017-12-01T02:47:17.248Z,1007.50
2017-12-01T02:48:17.198Z,1007.50
2017-12-01T02:49:17.517Z,1007.51
2017-12-01T02:50:17.143Z,1007.54
2017-12-01T02:51:17.117Z,1007.56
2017-12-01T02:52:17.076Z,1007.56
2017-12-01T02:53:17.041Z,1007.53
2017-12-01T02:54:17.020Z,1007.60
2017-12-01T02:55:16.979Z,1007.57
2017-12-01T02:56:16.948Z,1007.64
2017-12-01T02:57:16.920Z,1007.62
2017-12-01T02:58:16.890Z,1007.61
2017-12-01T02:59:16.851Z,1007.67
2017-12-01T03:00:16.832Z,1007.66
2017-12-01T03:01:17.044Z,1007.66
2017-12-01T03:02:16.765Z,1007.68
2017-12-01T03:03:16.726Z,1007.68
2017-12-01T03:04:16.691Z,1007.66
2017-12-01T03:05:16.663Z,1007.67
2017-12-01T03:06:16.645Z,1007.71
2017-12-01T03:07:16.613Z,1007.67
2017-12-01T03:08:16.577Z,1007.66
2017-12-01T03:09:16.542Z,1007.75
2017-12-01T03:10:16.508Z,1007.71
2017-12-01T03:11:16.469Z,1007.70
2017-12-01T03:12:16.451Z,1007.72
2017-12-01T03:13:16.660Z,1007.73
2017-12-01T03:14:16.384Z,1007.74
2017-12-01T03:15:16.354Z,1007.73
2017-12-01T03:16:16.319Z,1007.74
2017-12-01T03:17:16.280Z,1007.78
2017-12-01T03:18:16.257Z,1007.77
2017-12-01T03:19:16.523Z,1007.80
2017-12-01T03:20:16.195Z,1007.76
2017-12-01T03:21:16.164Z,1007.77
2017-12-01T03:22:16.123Z,1007.80
2017-12-01T03:23:16.088Z,1007.81
2017-12-01T03:24:16.072Z,1007.80
2017-12-01T03:25:16.030Z,1007.78
2017-12-01T03:26:16.020Z,1007.78
2017-12-01T03:27:15.977Z,1007.86
2017-12-01T03:28:15.938Z,1007.83
2017-12-01T03:29:15.905Z,1007.87
2017-12-01T03:30:15.884Z,1007.83
2017-12-01T03:31:15.843Z,1007.91
2017-12-01T03:32:15.820Z,1007.88
2017-12-01T03:33:15.775Z,1007.90
2017-12-01T03:34:15.742Z,1007.94
2017-12-01T03:35:15.724Z,1007.95
2017-12-01T03:36:15.688Z,1007.95
2017-12-01T03:37:15.901Z,1007.94
2017-12-01T03:38:15.629Z,1008.00
2017-12-01T03:39:15.587Z,1008.01
2017-12-01T03:40:15.560Z,1008.00
2017-12-01T03:41:15.530Z,1008.04
2017-12-01T03:42:15.494Z,1008.02
2017-12-01T03:43:15.466Z,1008.09
2017-12-01T03:44:15.436Z,1008.08
2017-12-01T03:45:15.402Z,1008.12
2017-12-01T03:46:15.377Z,1008.18
2017-12-01T03:47:15.342Z,1008.18
2017-12-01T03:48:15.301Z,1008.22
2017-12-01T03:49:15.626Z,1008.24
2017-12-01T03:50:15.241Z,1008.25
2017-12-01T03:51:15.217Z,1008.21
2017-12-01T03:52:15.183Z,1008.23
2017-12-01T03:53:15.157Z,1008.19
2017-12-01T03:54:15.115Z,1008.23
2017-12-01T03:55:15.381Z,1008.23
2017-12-01T03:56:15.060Z,1008.27
2017-12-01T03:57:15.030Z,1008.32
2017-12-01T03:58:14.995Z,1008.28
2017-12-01T03:59:14.967Z,1008.30
2017-12-01T04:00:14.926Z,1008.28
2017-12-01T04:01:14.901Z,1008.31
2017-12-01T04:02:14.868Z,1008.38
2017-12-01T04:03:14.850Z,1008.38
2017-12-01T04:04:14.816Z,1008.33
2017-12-01T04:05:14.774Z,1008.43
2017-12-01T04:06:14.744Z,1008.40
2017-12-01T04:07:14.708Z,1008.42
2017-12-01T04:08:14.678Z,1008.44
2017-12-01T04:09:14.648Z,1008.49
2017-12-01T04:10:14.617Z,1008.46
2017-12-01T04:11:14.590Z,1008.47
2017-12-01T04:12:14.560Z,1008.53
2017-12-01T04:13:14.528Z,1008.51
2017-12-01T04:14:14.491Z,1008.49
2017-12-01T04:15:14.466Z,1008.56
2017-12-01T04:16:14.431Z,1008.53
2017-12-01T04:17:14.396Z,1008.54
2017-12-01T04:18:14.375Z,1008.52
2017-12-01T04:19:14.586Z,1008.54
2017-12-01T04:20:14.296Z,1008.53
2017-12-01T04:21:14.276Z,1008.53
2017-12-01T04:22:14.244Z,1008.53
2017-12-01T04:23:14.205Z,1008.55
2017-12-01T04:24:14.185Z,1008.59
2017-12-01T04:25:14.503Z,1008.55
2017-12-01T04:26:14.114Z,1008.54
2017-12-01T04:27:14.098Z,1008.56
2017-12-01T04:28:14.052Z,1008.56
2017-12-01T04:29:14.029Z,1008.55
2017-12-01T04:30:13.994Z,1008.59
2017-12-01T04:31:13.966Z,1008.60
2017-12-01T04:32:13.923Z,1008.61
2017-12-01T04:33:13.897Z,1008.67
2017-12-01T04:34:13.863Z,1008.65
2017-12-01T04:35:13.846Z,1008.67
2017-12-01T04:36:13.803Z,1008.69
2017-12-01T04:37:14.074Z,1008.69
2017-12-01T04:38:13.743Z,1008.75
2017-12-01T04:39:13.712Z,1008.76
2017-12-01T04:40:13.674Z,1008.78
2017-12-01T04:41:13.645Z,1008.82
2017-12-01T04:42:13.613Z,1008.83
2017-12-01T04:43:13.578Z,1008.80
2017-12-01T04:44:13.551Z,1008.81
2017-12-01T04:45:13.528Z,1008.83
2017-12-01T04:46:13.495Z,1008.83
2017-12-01T04:47:13.457Z,1008.84
2017-12-01T04:48:13.427Z,1008.84
2017-12-01T04:49:13.390Z,1008.88
2017-12-01T04:50:13.369Z,1008.84
2017-12-01T04:51:13.339Z,1008.90
2017-12-01T04:52:13.306Z,1008.88
2017-12-01T04:53:13.273Z,1008.92
2017-12-01T04:54:13.232Z,1008.93
2017-12-01T04:55:13.556Z,1008.91
2017-12-01T04:56:13.177Z,1008.91
2017-12-01T04:57:13.147Z,1008.97
2017-12-01T04:58:13.107Z,1008.94
2017-12-01T04:59:13.076Z,1008.95
2017-12-01T05:00:13.052Z,1008.99
2017-12-01T05:01:13.276Z,1008.95
2017-12-01T05:02:12.994Z,1008.96
2017-12-01T05:03:12.975Z,1008.96
2017-12-01T05:04:12.921Z,1008.99
2017-12-01T05:05:12.896Z,1008.97
2017-12-01T05:06:12.869Z,1008.95
2017-12-01T05:07:13.133Z,1009.01
2017-12-01T05:08:12.801Z,1008.97
2017-12-01T05:09:12.761Z,1009.02
2017-12-01T05:10:12.743Z,1009.05
2017-12-01T05:11:12.705Z,1009.02
2017-12-01T05:12:12.723Z,1009.06
2017-12-01T05:13:12.909Z,1009.02
2017-12-01T05:14:12.603Z,1009.00
2017-12-01T05:15:12.575Z,1009.03
2017-12-01T05:16:12.551Z,1009.03
2017-12-01T05:17:12.523Z,1009.06
2017-12-01T05:18:12.484Z,1009.07
2017-12-01T05:19:12.701Z,1009.08
2017-12-01T05:20:12.419Z,1009.08
2017-12-01T05:21:12.386Z,1009.07
2017-12-01T05:22:12.361Z,1009.09
2017-12-01T05:23:12.329Z,1009.09
2017-12-01T05:24:12.304Z,1009.09
2017-12-01T05:25:12.272Z,1009.13
2017-12-01T05:26:12.234Z,1009.08
2017-12-01T05:27:12.208Z,1009.10
2017-12-01T05:28:12.171Z,1009.11
2017-12-01T05:29:12.140Z,1009.14
2017-12-01T05:30:12.111Z,1009.18
2017-12-01T05:31:12.374Z,1009.20
2017-12-01T05:32:12.037Z,1009.21
2017-12-01T05:33:12.008Z,1009.23
2017-12-01T05:34:11.989Z,1009.23
2017-12-01T05:35:11.953Z,1009.24
2017-12-01T05:36:11.921Z,1009.32
2017-12-01T05:37:11.897Z,1009.30
2017-12-01T05:38:11.856Z,1009.28
2017-12-01T05:39:11.830Z,1009.30
2017-12-01T05:40:11.791Z,1009.25
2017-12-01T05:41:11.765Z,1009.31
2017-12-01T05:42:11.732Z,1009.30
2017-12-01T05:43:11.950Z,1009.34
2017-12-01T05:44:11.669Z,1009.33
2017-12-01T05:45:11.638Z,1009.36
2017-12-01T05:46:11.617Z,1009.36
2017-12-01T05:47:11.582Z,1009.35
2017-12-01T05:48:11.548Z,1009.34
2017-12-01T05:49:11.509Z,1009.35
2017-12-01T05:50:11.483Z,1009.36
2017-12-01T05:51:11.446Z,1009.36
2017-12-01T05:52:11.418Z,1009.36
2017-12-01T05:53:11.389Z,1009.34
2017-12-01T05:54:11.352Z,1009.35
2017-12-01T05:55:11.329Z,1009.37
2017-12-01T05:56:11.297Z,1009.41
2017-12-01T05:57:11.268Z,1009.38
2017-12-01T05:58:11.237Z,1009.39
2017-12-01T05:59:11.204Z,1009.38
2017-12-01T06:00:11.163Z,1009.40
2017-12-01T06:01:11.139Z,1009.40
2017-12-01T06:02:11.109Z,1009.32
2017-12-01T06:03:11.087Z,1009.37
2017-12-01T06:04:11.037Z,1009.32
2017-12-01T06:05:11.006Z,1009.38
2017-12-01T06:06:11.287Z,1009.37
2017-12-01T06:07:10.955Z,1009.39
2017-12-01T06:08:10.925Z,1009.42
2017-12-01T06:09:10.891Z,1009.36
2017-12-01T06:10:10.855Z,1009.43
2017-12-01T06:11:10.820Z,1009.46
2017-12-01T06:12:11.103Z,1009.44
2017-12-01T06:13:10.770Z,1009.48
2017-12-01T06:14:10.737Z,1009.42
2017-12-01T06:15:10.709Z,1009.41
2017-12-01T06:16:10.667Z,1009.48
2017-12-01T06:17:10.644Z,1009.48
2017-12-01T06:18:10.614Z,1009.46
2017-12-01T06:19:10.583Z,1009.47
2017-12-01T06:20:10.544Z,1009.47
2017-12-01T06:21:10.519Z,1009.48
2017-12-01T06:22:10.489Z,1009.49
2017-12-01T06:23:10.447Z,1009.54
2017-12-01T06:24:10.728Z,1009.53
2017-12-01T06:25:10.391Z,1009.57
2017-12-01T06:26:10.359Z,1009.51
2017-12-01T06:27:10.327Z,1009.55
2017-12-01T06:28:10.303Z,1009.54
2017-12-01T06:29:10.280Z,1009.63
2017-12-01T06:30:10.244Z,1009.58
2017-12-01T06:31:10.215Z,1009.59
2017-12-01T06:32:10.173Z,1009.59
2017-12-01T06:33:10.147Z,1009.57
2017-12-01T06:34:10.112Z,1009.63
2017-12-01T06:35:10.081Z,1009.63
2017-12-01T06:36:10.317Z,1009.63
2017-12-01T06:37:10.013Z,1009.67
2017-12-01T06:38:09.988Z,1009.69
2017-12-01T06:39:09.953Z,1009.66
2017-12-01T06:40:09.941Z,1009.70
2017-12-01T06:41:09.902Z,1009.72
2017-12-01T06:42:09.857Z,1009.69
2017-12-01T06:43:09.830Z,1009.75
2017-12-01T06:44:09.799Z,1009.77
2017-12-01T06:45:09.771Z,1009.78
2017-12-01T06:46:09.743Z,1009.82
2017-12-01T06:47:09.707Z,1009.85
2017-12-01T06:48:09.670Z,1009.84
2017-12-01T06:49:09.646Z,1009.85
2017-12-01T06:50:09.621Z,1009.83
2017-12-01T06:51:09.586Z,1009.83
2017-12-01T06:52:09.552Z,1009.89
2017-12-01T06:53:09.521Z,1009.87
2017-12-01T06:54:09.495Z,1009.97
2017-12-01T06:55:09.460Z,1009.95
2017-12-01T06:56:09.432Z,1009.98
2017-12-01T06:57:09.395Z,1009.97
2017-12-01T06:58:09.373Z,1009.98
2017-12-01T06:59:09.335Z,1010.02
2017-12-01T07:00:09.308Z,1010.04
2017-12-01T07:01:09.285Z,1009.97
2017-12-01T07:02:09.246Z,1010.00
2017-12-01T07:03:09.208Z,1010.05
2017-12-01T07:04:09.182Z,1010.04
2017-12-01T07:05:09.149Z,1010.06
2017-12-01T07:06:09.372Z,1010.09
2017-12-01T07:07:09.125Z,1010.11
2017-12-01T07:08:09.051Z,1010.19
2017-12-01T07:09:09.023Z,1010.21
2017-12-01T07:10:08.988Z,1010.17
2017-12-01T07:11:08.953Z,1010.24
2017-12-01T07:12:08.934Z,1010.22
2017-12-01T07:13:08.899Z,1010.28
2017-12-01T07:14:08.864Z,1010.29
2017-12-01T07:15:08.839Z,1010.31
2017-12-01T07:16:08.812Z,1010.27
2017-12-01T07:17:08.782Z,1010.32
2017-12-01T07:18:08.746Z,1010.33
2017-12-01T07:19:08.717Z,1010.40
2017-12-01T07:20:08.675Z,1010.38
2017-12-01T07:21:08.647Z,1010.39
2017-12-01T07:22:08.624Z,1010.39
2017-12-01T07:23:08.591Z,1010.42
2017-12-01T07:24:08.551Z,1010.45
2017-12-01T07:25:08.530Z,1010.42
2017-12-01T07:26:08.492Z,1010.44
2017-12-01T07:27:08.465Z,1010.41
2017-12-01T07:28:08.434Z,1010.47
2017-12-01T07:29:08.404Z,1010.47
2017-12-01T07:30:08.375Z,1010.51
2017-12-01T07:31:08.343Z,1010.53
2017-12-01T07:32:08.309Z,1010.47
2017-12-01T07:33:08.276Z,1010.55
2017-12-01T07:34:08.243Z,1010.55
2017-12-01T07:35:08.561Z,1010.55
2017-12-01T07:36:08.188Z,1010.63
2017-12-01T07:37:08.153Z,1010.66
2017-12-01T07:38:08.114Z,1010.66
2017-12-01T07:39:08.079Z,1010.70
2017-12-01T07:40:08.062Z,1010.71
2017-12-01T07:41:08.283Z,1010.72
2017-12-01T07:42:08.001Z,1010.75
2017-12-01T07:43:07.973Z,1010.72
2017-12-01T07:44:07.931Z,1010.75
2017-12-01T07:45:07.900Z,1010.73
2017-12-01T07:46:07.880Z,1010.77
2017-12-01T07:47:07.838Z,1010.75
2017-12-01T07:48:07.810Z,1010.76
2017-12-01T07:49:07.783Z,1010.82
2017-12-01T07:50:07.740Z,1010.87
2017-12-01T07:51:07.716Z,1010.86
2017-12-01T07:52:07.695Z,1010.95
2017-12-01T07:53:07.649Z,1010.95
2017-12-01T07:54:07.625Z,1010.89
2017-12-01T07:55:07.583Z,1010.88
2017-12-01T07:56:07.564Z,1010.86
2017-12-01T07:57:07.526Z,1010.85
2017-12-01T07:58:07.502Z,1010.89
2017-12-01T07:59:07.464Z,1010.85
2017-12-01T08:00:07.444Z,1010.94
2017-12-01T08:01:07.409Z,1010.95
2017-12-01T08:02:07.376Z,1010.93
2017-12-01T08:03:07.349Z,1010.92
2017-12-01T08:04:07.308Z,1010.98
2017-12-01T08:05:07.525Z,1011.02
2017-12-01T08:06:07.253Z,1011.07
2017-12-01T08:07:07.215Z,1011.08
2017-12-01T08:08:07.193Z,1011.07
2017-12-01T08:09:07.167Z,1011.06
2017-12-01T08:10:07.125Z,1011.12
2017-12-01T08:11:07.092Z,1011.18
2017-12-01T08:12:07.073Z,1011.18
2017-12-01T08:13:07.050Z,1011.21
2017-12-01T08:14:07.005Z,1011.21
2017-12-01T08:15:06.979Z,1011.24
2017-12-01T08:16:06.944Z,1011.28
2017-12-01T08:17:06.919Z,1011.27
2017-12-01T08:18:06.885Z,1011.27
2017-12-01T08:19:06.856Z,1011.24
2017-12-01T08:20:06.827Z,1011.28
2017-12-01T08:21:06.794Z,1011.34
2017-12-01T08:22:06.762Z,1011.28
2017-12-01T08:23:06.730Z,1011.35
2017-12-01T08:24:06.695Z,1011.36
2017-12-01T08:25:06.667Z,1011.36
2017-12-01T08:26:06.630Z,1011.33
2017-12-01T08:27:06.605Z,1011.39
2017-12-01T08:28:06.579Z,1011.40
2017-12-01T08:29:06.552Z,1011.45
2017-12-01T08:30:06.520Z,1011.48
2017-12-01T08:31:06.489Z,1011.43
2017-12-01T08:32:06.447Z,1011.41
2017-12-01T08:33:06.423Z,1011.49
2017-12-01T08:34:06.388Z,1011.48
2017-12-01T08:35:06.360Z,1011.52
2017-12-01T08:36:06.334Z,1011.53
2017-12-01T08:37:06.299Z,1011.49
2017-12-01T08:38:06.270Z,1011.52
2017-12-01T08:39:06.233Z,1011.55
2017-12-01T08:40:06.211Z,1011.54
2017-12-01T08:41:06.186Z,1011.58
2017-12-01T08:42:06.145Z,1011.60
2017-12-01T08:43:06.118Z,1011.62
2017-12-01T08:44:06.090Z,1011.63
2017-12-01T08:45:06.053Z,1011.61
2017-12-01T08:46:06.025Z,1011.67
2017-12-01T08:47:05.987Z,1011.64
2017-12-01T08:48:05.963Z,1011.53
2017-12-01T08:49:05.943Z,1011.64
2017-12-01T08:50:05.909Z,1011.69
2017-12-01T08:51:05.872Z,1011.73
2017-12-01T08:52:05.839Z,1011.74
2017-12-01T08:53:05.799Z,1011.82
2017-12-01T08:54:05.768Z,1011.77
2017-12-01T08:55:05.747Z,1011.83
2017-12-01T08:56:05.717Z,1011.86
2017-12-01T08:57:05.693Z,1011.86
2017-12-01T08:58:05.654Z,1011.82
2017-12-01T08:59:05.616Z,1011.84
2017-12-01T09:00:05.590Z,1011.83
2017-12-01T09:01:05.561Z,1011.89
2017-12-01T09:02:05.533Z,1011.89
2017-12-01T09:03:05.503Z,1011.92
2017-12-01T09:04:05.467Z,1011.95
2017-12-01T09:05:05.448Z,1011.94
2017-12-01T09:06:05.411Z,1012.02
2017-12-01T09:07:05.376Z,1011.99
2017-12-01T09:08:05.374Z,1012.01
2017-12-01T09:09:05.309Z,1012.01
2017-12-01T09:10:05.278Z,1012.06
2017-12-01T09:11:05.247Z,1012.09
2017-12-01T09:12:05.220Z,1012.04
2017-12-01T09:13:05.198Z,1012.08
2017-12-01T09:14:05.167Z,1012.06
2017-12-01T09:15:05.123Z,1012.10
2017-12-01T09:16:05.097Z,1012.11
2017-12-01T09:17:05.068Z,1012.10
2017-12-01T09:18:05.035Z,1012.11
2017-12-01T09:19:05.009Z,1012.14
2017-12-01T09:20:04.995Z,1012.21
2017-12-01T09:21:04.957Z,1012.16
2017-12-01T09:22:04.921Z,1012.21
2017-12-01T09:23:04.886Z,1012.23
2017-12-01T09:24:04.855Z,1012.25
2017-12-01T09:25:04.821Z,1012.24
2017-12-01T09:26:04.792Z,1012.25
2017-12-01T09:27:04.760Z,1012.32
2017-12-01T09:28:04.730Z,1012.26
2017-12-01T09:29:04.710Z,1012.25
2017-12-01T09:30:04.672Z,1012.27
2017-12-01T09:31:04.632Z,1012.28
2017-12-01T09:32:04.607Z,1012.26
2017-12-01T09:33:04.576Z,1012.27
2017-12-01T09:34:04.551Z,1012.30
2017-12-01T09:35:04.522Z,1012.31
2017-12-01T09:36:04.486Z,1012.28
2017-12-01T09:37:04.455Z,1012.31
2017-12-01T09:38:04.416Z,1012.30
2017-12-01T09:39:04.396Z,1012.33
2017-12-01T09:40:04.359Z,1012.38
2017-12-01T09:41:04.333Z,1012.33
2017-12-01T09:42:04.299Z,1012.43
2017-12-01T09:43:04.271Z,1012.37
2017-12-01T09:44:04.241Z,1012.42
2017-12-01T09:45:04.206Z,1012.42
2017-12-01T09:46:04.185Z,1012.36
2017-12-01T09:47:04.144Z,1012.44
2017-12-01T09:48:04.108Z,1012.40
2017-12-01T09:49:04.077Z,1012.46
2017-12-01T09:50:04.053Z,1012.44
2017-12-01T09:51:04.029Z,1012.47
2017-12-01T09:52:03.989Z,1012.42
2017-12-01T09:53:03.968Z,1012.49
2017-12-01T09:54:03.935Z,1012.54
2017-12-01T09:55:03.896Z,1012.63
2017-12-01T09:56:03.874Z,1012.65
2017-12-01T09:57:03.844Z,1012.65
2017-12-01T09:58:03.812Z,1012.65
2017-12-01T09:59:03.776Z,1012.64
2017-12-01T10:00:03.754Z,1012.66
2017-12-01T10:01:03.719Z,1012.66
2017-12-01T10:02:03.702Z,1012.65
2017-12-01T10:03:03.664Z,1012.64
2017-12-01T10:04:03.634Z,1012.61
2017-12-01T10:05:03.603Z,1012.60
2017-12-01T10:06:03.574Z,1012.66
2017-12-01T10:07:03.530Z,1012.60
2017-12-01T10:08:03.504Z,1012.68
2017-12-01T10:09:03.481Z,1012.64
2017-12-01T10:10:03.451Z,1012.69
2017-12-01T10:11:03.411Z,1012.70
2017-12-01T10:12:03.406Z,1012.70
2017-12-01T10:13:03.356Z,1012.73
2017-12-01T10:14:03.336Z,1012.74
2017-12-01T10:15:03.615Z,1012.73
2017-12-01T10:16:03.270Z,1012.77
2017-12-01T10:17:03.246Z,1012.81
2017-12-01T10:18:03.214Z,1012.79
2017-12-01T10:19:03.174Z,1012.82
2017-12-01T10:20:03.148Z,1012.79
2017-12-01T10:21:03.109Z,1012.80
2017-12-01T10:22:03.082Z,1012.82
2017-12-01T10:23:03.060Z,1012.79
2017-12-01T10:24:03.034Z,1012.82
2017-12-01T10:25:03.002Z,1012.83
2017-12-01T10:26:02.974Z,1012.81
2017-12-01T10:27:02.943Z,1012.79
2017-12-01T10:28:02.913Z,1012.71
2017-12-01T10:29:02.884Z,1012.71
2017-12-01T10:30:02.849Z,1012.73
2017-12-01T10:31:02.815Z,1012.72
2017-12-01T10:32:02.785Z,1012.73
2017-12-01T10:33:02.758Z,1012.72
2017-12-01T10:34:02.726Z,1012.65
2017-12-01T10:35:02.710Z,1012.82
2017-12-01T10:36:02.994Z,1012.77
2017-12-01T10:37:02.634Z,1012.74
2017-12-01T10:38:02.614Z,1012.73
2017-12-01T10:39:02.577Z,1012.69
2017-12-01T10:40:02.552Z,1012.65
2017-12-01T10:41:02.523Z,1012.73
2017-12-01T10:42:02.482Z,1012.74
2017-12-01T10:43:02.455Z,1012.70
2017-12-01T10:44:02.429Z,1012.74
2017-12-01T10:45:02.413Z,1012.76
2017-12-01T10:46:02.365Z,1012.79
2017-12-01T10:47:02.349Z,1012.79
2017-12-01T10:48:02.311Z,1012.83
2017-12-01T10:49:02.270Z,1012.82
2017-12-01T10:50:02.252Z,1012.88
2017-12-01T10:51:02.223Z,1012.82
2017-12-01T10:52:02.178Z,1012.86
2017-12-01T10:53:02.154Z,1012.95
2017-12-01T10:54:02.119Z,1012.93
2017-12-01T10:55:02.087Z,1012.90
2017-12-01T10:56:02.077Z,1012.89
2017-12-01T10:57:02.035Z,1012.93
2017-12-01T10:58:02.005Z,1012.95
2017-12-01T10:59:01.981Z,1012.95
2017-12-01T11:00:01.940Z,1012.96
2017-12-01T11:01:01.954Z,1012.97
2017-12-01T11:02:01.882Z,1012.98
2017-12-01T11:03:01.874Z,1012.99
2017-12-01T11:04:01.815Z,1013.04
2017-12-01T11:05:01.789Z,1013.03
2017-12-01T11:06:01.766Z,1012.97
2017-12-01T11:07:01.734Z,1012.99
2017-12-01T11:08:01.952Z,1013.02
2017-12-01T11:09:01.667Z,1012.98
2017-12-01T11:10:01.637Z,1013.00
2017-12-01T11:11:01.609Z,1012.97
2017-12-01T11:12:01.575Z,1013.01
2017-12-01T11:13:01.548Z,1013.05
2017-12-01T11:14:01.520Z,1013.01
2017-12-01T11:15:01.482Z,1013.01
2017-12-01T11:16:01.471Z,1013.04
2017-12-01T11:17:01.424Z,1013.02
2017-12-01T11:18:01.401Z,1012.98
2017-12-01T11:19:01.372Z,1012.98
2017-12-01T11:20:01.337Z,1013.05
2017-12-01T11:21:01.299Z,1013.10
2017-12-01T11:22:01.283Z,1013.02
2017-12-01T11:23:01.247Z,1013.06
2017-12-01T11:24:01.216Z,1013.04
2017-12-01T11:25:01.184Z,1013.06
2017-12-01T11:26:01.457Z,1013.07
2017-12-01T11:27:01.133Z,1013.09
2017-12-01T11:28:01.100Z,1013.10
2017-12-01T11:29:01.076Z,1013.12
2017-12-01T11:30:01.041Z,1013.19
2017-12-01T11:31:01.006Z,1013.20
2017-12-01T11:32:00.985Z,1013.19
2017-12-01T11:33:00.953Z,1013.20
2017-12-01T11:34:00.917Z,1013.18
2017-12-01T11:35:00.886Z,1013.24
2017-12-01T11:36:00.861Z,1013.28
2017-12-01T11:37:00.830Z,1013.23
2017-12-01T11:38:00.804Z,1013.29
2017-12-01T11:39:00.767Z,1013.30
2017-12-01T11:40:00.737Z,1013.31
2017-12-01T11:41:00.705Z,1013.33
2017-12-01T11:42:00.672Z,1013.29
2017-12-01T11:43:00.642Z,1013.31
2017-12-01T11:44:00.867Z,1013.29
2017-12-01T11:45:00.588Z,1013.33
2017-12-01T11:46:00.566Z,1013.34
2017-12-01T11:47:00.527Z,1013.35
2017-12-01T11:48:00.498Z,1013.37
2017-12-01T11:49:00.480Z,1013.38
2017-12-01T11:50:00.443Z,1013.37
2017-12-01T11:51:00.412Z,1013.38
2017-12-01T11:52:00.381Z,1013.38
2017-12-01T11:53:00.351Z,1013.37
2017-12-01T11:54:00.317Z,1013.32
2017-12-01T11:55:00.294Z,1013.38
2017-12-01T11:56:00.262Z,1013.34
2017-12-01T11:57:00.233Z,1013.29
2017-12-01T11:58:00.216Z,1013.37
2017-12-01T11:59:00.174Z,1013.38
2017-12-01T12:00:00.147Z,1013.35
2017-12-01T12:01:00.119Z,1013.37
2017-12-01T12:02:00.087Z,1013.39
2017-12-01T12:03:00.057Z,1013.41
2017-12-01T12:04:00.026Z,1013.44
2017-12-01T12:05:00.002Z,1013.37